sensor_id;sensor_type;location;lat;lon;timestamp;pressure;altitude;pressure_sealevel;temperature;humidity
68169;BME280;54981;50.206;15.978;2024-03-17T00:13:00;99391.13;;;4.38;100.00
68169;BME280;54981;50.206;15.978;2024-03-17T00:28:04;99391.91;;;4.01;100.00
68169;BME280;54981;50.206;15.978;2024-03-17T00:43:04;99397.28;;;3.97;100.00
68169;BME280;54981;50.206;15.978;2024-03-17T00:58:05;99401.53;;;3.60;100.00
68169;BME280;54981;50.206;15.978;2024-03-17T01:13:06;99403.06;;;3.26;100.00
68169;BME280;54981;50.206;15.978;2024-03-17T01:28:07;99394.78;;;3.46;100.00
68169;BME280;54981;50.206;15.978;2024-03-17T01:43:11;99403.16;;;3.19;100.00
68169;BME280;54981;50.206;15.978;2024-03-17T01:58:14;99413.97;;;3.04;100.00
68169;BME280;54981;50.206;15.978;2024-03-17T02:13:14;99409.88;;;2.86;100.00
68169;BME280;54981;50.206;15.978;2024-03-17T02:28:15;99416.28;;;2.67;100.00
68169;BME280;54981;50.206;15.978;2024-03-17T02:43:15;99413.78;;;2.61;100.00
68169;BME280;54981;50.206;15.978;2024-03-17T02:58:16;99422.09;;;2.28;100.00
68169;BME280;54981;50.206;15.978;2024-03-17T03:13:16;99420.56;;;2.13;100.00
68169;BME280;54981;50.206;15.978;2024-03-17T03:28:16;99425.31;;;1.85;100.00
68169;BME280;54981;50.206;15.978;2024-03-17T03:43:17;99429.81;;;1.74;100.00
68169;BME280;54981;50.206;15.978;2024-03-17T03:58:18;99429.13;;;1.57;100.00
68169;BME280;54981;50.206;15.978;2024-03-17T04:13:18;99446.59;;;1.56;100.00
68169;BME280;54981;50.206;15.978;2024-03-17T04:28:19;99446.97;;;1.19;100.00
68169;BME280;54981;50.206;15.978;2024-03-17T04:43:19;99443.34;;;1.34;100.00
68169;BME280;54981;50.206;15.978;2024-03-17T04:58:21;99447.13;;;1.04;100.00
68169;BME280;54981;50.206;15.978;2024-03-17T05:13:21;99465.63;;;0.81;100.00
68169;BME280;54981;50.206;15.978;2024-03-17T05:28:22;99486.56;;;0.84;100.00
68169;BME280;54981;50.206;15.978;2024-03-17T05:43:23;99502.94;;;1.15;100.00
68169;BME280;54981;50.206;15.978;2024-03-17T05:58:24;99502.91;;;1.21;100.00
68169;BME280;54981;50.206;15.978;2024-03-17T06:13:24;99513.13;;;1.54;100.00
68169;BME280;54981;50.206;15.978;2024-03-17T06:28:24;99515.31;;;2.68;100.00
68169;BME280;54981;50.206;15.978;2024-03-17T06:43:27;99518.22;;;3.64;100.00
68169;BME280;54981;50.206;15.978;2024-03-17T06:58:27;99530.59;;;4.05;100.00
68169;BME280;54981;50.206;15.978;2024-03-17T07:13:31;99535.31;;;4.35;100.00
68169;BME280;54981;50.206;15.978;2024-03-17T07:28:32;99536.66;;;4.96;100.00
68169;BME280;54981;50.206;15.978;2024-03-17T07:43:34;99533.47;;;5.55;100.00
68169;BME280;54981;50.206;15.978;2024-03-17T07:58:40;99534.34;;;5.90;100.00
68169;BME280;54981;50.206;15.978;2024-03-17T08:13:40;99536.50;;;6.41;100.00
68169;BME280;54981;50.206;15.978;2024-03-17T08:28:41;99518.28;;;6.61;100.00
68169;BME280;54981;50.206;15.978;2024-03-17T08:43:41;99516.50;;;7.20;100.00
68169;BME280;54981;50.206;15.978;2024-03-17T08:58:43;99517.41;;;7.45;100.00
68169;BME280;54981;50.206;15.978;2024-03-17T09:13:43;99504.75;;;7.00;100.00
68169;BME280;54981;50.206;15.978;2024-03-17T09:28:44;99509.94;;;7.32;100.00
68169;BME280;54981;50.206;15.978;2024-03-17T09:43:46;99517.06;;;7.30;100.00
68169;BME280;54981;50.206;15.978;2024-03-17T09:58:48;99508.97;;;7.34;100.00
68169;BME280;54981;50.206;15.978;2024-03-17T10:14:00;99494.31;;;8.01;100.00
68169;BME280;54981;50.206;15.978;2024-03-17T10:29:01;99473.50;;;8.62;100.00
68169;BME280;54981;50.206;15.978;2024-03-17T10:44:02;99473.13;;;8.24;100.00
68169;BME280;54981;50.206;15.978;2024-03-17T10:59:03;99462.63;;;8.21;100.00
68169;BME280;54981;50.206;15.978;2024-03-17T11:14:17;99465.22;;;7.99;100.00
68169;BME280;54981;50.206;15.978;2024-03-17T11:29:27;99440.97;;;8.57;99.13
68169;BME280;54981;50.206;15.978;2024-03-17T11:44:28;99430.84;;;8.45;100.00
68169;BME280;54981;50.206;15.978;2024-03-17T11:59:32;99419.38;;;8.19;95.32
68169;BME280;54981;50.206;15.978;2024-03-17T12:14:33;99396.59;;;8.61;90.76
68169;BME280;54981;50.206;15.978;2024-03-17T12:29:39;99381.13;;;8.25;100.00
68169;BME280;54981;50.206;15.978;2024-03-17T12:44:50;99366.34;;;8.65;97.29
68169;BME280;54981;50.206;15.978;2024-03-17T12:59:51;99357.66;;;9.04;75.77
68169;BME280;54981;50.206;15.978;2024-03-17T13:15:15;99337.78;;;10.32;63.77
68169;BME280;54981;50.206;15.978;2024-03-17T13:30:17;99312.22;;;9.51;64.71
68169;BME280;54981;50.206;15.978;2024-03-17T13:45:21;99336.69;;;8.98;65.43
68169;BME280;54981;50.206;15.978;2024-03-17T14:00:26;99317.09;;;9.00;70.61
68169;BME280;54981;50.206;15.978;2024-03-17T14:15:27;99295.97;;;9.17;64.28
68169;BME280;54981;50.206;15.978;2024-03-17T14:30:27;99281.59;;;9.42;68.53
68169;BME280;54981;50.206;15.978;2024-03-17T14:45:27;99280.25;;;9.52;78.54
68169;BME280;54981;50.206;15.978;2024-03-17T15:00:28;99274.34;;;8.86;84.94
68169;BME280;54981;50.206;15.978;2024-03-17T15:15:31;99265.19;;;8.93;82.53
68169;BME280;54981;50.206;15.978;2024-03-17T15:30:31;99262.16;;;8.80;87.56
68169;BME280;54981;50.206;15.978;2024-03-17T15:45:32;99265.03;;;8.96;76.91
68169;BME280;54981;50.206;15.978;2024-03-17T16:00:33;99260.59;;;8.76;71.95
68169;BME280;54981;50.206;15.978;2024-03-17T16:15:35;99252.84;;;8.27;96.66
68169;BME280;54981;50.206;15.978;2024-03-17T16:30:35;99255.41;;;8.07;88.45
68169;BME280;54981;50.206;15.978;2024-03-17T16:45:41;99262.16;;;7.70;97.01
68169;BME280;54981;50.206;15.978;2024-03-17T17:00:44;99269.06;;;7.27;100.00
68169;BME280;54981;50.206;15.978;2024-03-17T17:15:44;99270.16;;;6.45;100.00
68169;BME280;54981;50.206;15.978;2024-03-17T17:30:44;99270.59;;;6.31;100.00
68169;BME280;54981;50.206;15.978;2024-03-17T17:45:45;99280.88;;;6.12;100.00
68169;BME280;54981;50.206;15.978;2024-03-17T18:00:45;99295.09;;;5.48;100.00
68169;BME280;54981;50.206;15.978;2024-03-17T18:15:45;99282.28;;;5.34;100.00
68169;BME280;54981;50.206;15.978;2024-03-17T18:30:47;99290.31;;;5.30;100.00
68169;BME280;54981;50.206;15.978;2024-03-17T18:45:48;99298.78;;;4.77;100.00
68169;BME280;54981;50.206;15.978;2024-03-17T19:00:52;99296.06;;;4.44;100.00
68169;BME280;54981;50.206;15.978;2024-03-17T19:16:06;99293.47;;;3.67;100.00
68169;BME280;54981;50.206;15.978;2024-03-17T19:31:06;99292.59;;;3.23;100.00
68169;BME280;54981;50.206;15.978;2024-03-17T19:46:11;99287.53;;;3.13;100.00
68169;BME280;54981;50.206;15.978;2024-03-17T20:01:13;99281.88;;;2.87;100.00
68169;BME280;54981;50.206;15.978;2024-03-17T20:16:23;99283.38;;;1.95;100.00
68169;BME280;54981;50.206;15.978;2024-03-17T20:31:27;99280.75;;;1.30;100.00
68169;BME280;54981;50.206;15.978;2024-03-17T20:46:27;99275.16;;;1.56;100.00
68169;BME280;54981;50.206;15.978;2024-03-17T21:01:28;99285.84;;;1.42;100.00
68169;BME280;54981;50.206;15.978;2024-03-17T21:16:29;99271.50;;;0.99;100.00
68169;BME280;54981;50.206;15.978;2024-03-17T21:31:29;99275.31;;;0.64;100.00
68169;BME280;54981;50.206;15.978;2024-03-17T21:46:30;99262.53;;;0.32;100.00
68169;BME280;54981;50.206;15.978;2024-03-17T22:01:30;99264.41;;;0.18;100.00
68169;BME280;54981;50.206;15.978;2024-03-17T22:16:31;99267.97;;;0.06;100.00
68169;BME280;54981;50.206;15.978;2024-03-17T22:31:32;99283.81;;;-0.17;100.00
68169;BME280;54981;50.206;15.978;2024-03-17T22:46:33;99273.41;;;-0.25;100.00
68169;BME280;54981;50.206;15.978;2024-03-17T23:01:34;99273.44;;;-0.34;100.00
68169;BME280;54981;50.206;15.978;2024-03-17T23:16:34;99260.53;;;-0.63;100.00
68169;BME280;54981;50.206;15.978;2024-03-17T23:31:34;99264.13;;;-0.84;100.00
68169;BME280;54981;50.206;15.978;2024-03-17T23:46:35;99251.06;;;-0.86;100.00
